createdAt,value
2022-12-07T00:01:46.260Z,101441.47
2022-12-07T00:04:17.712Z,101440.72
2022-12-07T00:06:53.895Z,101440.81
2022-12-07T00:09:20.862Z,101431.97
2022-12-07T00:11:52.068Z,101440.03
2022-12-07T00:14:20.289Z,101432.06
2022-12-07T00:16:50.508Z,101423.22
2022-12-07T00:19:17.824Z,101434.88
2022-12-07T00:21:44.665Z,101426.91
2022-12-07T00:24:13.687Z,101424.28
2022-12-07T00:26:42.801Z,101420.75
2022-12-07T00:29:22.594Z,101416.41
2022-12-07T00:31:49.656Z,101423.59
2022-12-07T00:34:21.072Z,101418.25
2022-12-07T00:36:48.582Z,101420.03
2022-12-07T00:39:15.728Z,101416.50
2022-12-07T00:41:42.912Z,101413.00
2022-12-07T00:44:09.699Z,101415.72
2022-12-07T00:46:36.439Z,101422.03
2022-12-07T00:49:03.562Z,101420.25
2022-12-07T00:51:30.401Z,101423.94
2022-12-07T00:53:57.149Z,101415.94
2022-12-07T00:56:29.601Z,101414.91
2022-12-07T00:59:04.764Z,101409.59
2022-12-07T01:01:38.173Z,101409.63
2022-12-07T01:04:06.135Z,101415.00
2022-12-07T01:06:33.675Z,101407.94
2022-12-07T01:09:01.460Z,101402.63
2022-12-07T01:11:31.520Z,101412.41
2022-12-07T01:14:01.358Z,101407.06
2022-12-07T01:16:31.007Z,101411.63
2022-12-07T01:18:59.852Z,101414.34
2022-12-07T01:21:30.992Z,101413.53
2022-12-07T01:23:59.516Z,101417.09
2022-12-07T01:26:27.793Z,101422.53
2022-12-07T01:28:56.450Z,101431.44
2022-12-07T01:31:26.478Z,101429.69
2022-12-07T01:33:57.403Z,101428.78
2022-12-07T01:36:35.490Z,101412.72
2022-12-07T01:39:06.923Z,101410.97
2022-12-07T01:41:40.132Z,101411.00
2022-12-07T01:44:24.156Z,101408.34
2022-12-07T01:47:05.715Z,101413.78
2022-12-07T01:49:36.711Z,101407.53
2022-12-07T01:52:23.482Z,101408.44
2022-12-07T01:54:58.162Z,101419.19
2022-12-07T01:57:25.760Z,101417.53
2022-12-07T01:59:55.098Z,101412.25
2022-12-07T02:02:35.177Z,101421.19
2022-12-07T02:05:04.936Z,101419.50
2022-12-07T02:07:35.700Z,101408.00
2022-12-07T02:10:17.551Z,101416.00
2022-12-07T02:12:50.124Z,101412.50
2022-12-07T02:15:18.095Z,101406.34
2022-12-07T02:18:24.323Z,101409.09
2022-12-07T02:21:14.516Z,101403.75
2022-12-07T02:24:18.538Z,101403.75
2022-12-07T02:27:24.615Z,101411.78
2022-12-07T02:30:02.642Z,101416.31
2022-12-07T02:33:08.863Z,101412.94
2022-12-07T02:35:49.555Z,101410.25
2022-12-07T02:38:32.269Z,101403.06
2022-12-07T02:41:13.704Z,101403.06
2022-12-07T02:43:48.683Z,101401.25
2022-12-07T02:46:24.253Z,101395.00
2022-12-07T02:48:53.667Z,101398.59
2022-12-07T02:51:20.797Z,101394.22
2022-12-07T02:53:47.656Z,101396.03
2022-12-07T02:56:42.432Z,101396.13
2022-12-07T02:59:38.268Z,101404.31
2022-12-07T03:02:33.100Z,101400.81
2022-12-07T03:05:22.573Z,101400.66
2022-12-07T03:08:13.594Z,101404.94
2022-12-07T03:10:52.291Z,101407.41
2022-12-07T03:13:40.444Z,101416.19
2022-12-07T03:16:14.035Z,101410.78
2022-12-07T03:19:06.886Z,101418.84
2022-12-07T03:21:41.961Z,101412.69
2022-12-07T03:24:20.596Z,101410.09
2022-12-07T03:26:57.115Z,101407.41
2022-12-07T03:29:32.177Z,101402.81
2022-12-07T03:32:09.571Z,101401.88
2022-12-07T03:35:00.442Z,101395.63
2022-12-07T03:37:41.081Z,101394.59
2022-12-07T03:40:14.108Z,101398.03
2022-12-07T03:42:41.405Z,101392.53
2022-12-07T03:45:09.101Z,101389.75
2022-12-07T03:47:45.281Z,101386.09
2022-12-07T03:50:46.804Z,101383.41
2022-12-07T03:53:23.371Z,101389.59
2022-12-07T03:55:51.858Z,101388.69
2022-12-07T03:58:22.860Z,101386.84
2022-12-07T04:00:51.503Z,101385.03
2022-12-07T04:03:18.410Z,101392.19
2022-12-07T04:05:46.491Z,101379.69
2022-12-07T04:08:13.306Z,101383.13
2022-12-07T04:10:40.150Z,101389.34
2022-12-07T04:13:06.886Z,101386.66
2022-12-07T04:15:33.634Z,101388.50
2022-12-07T04:18:00.762Z,101386.66
2022-12-07T04:20:27.683Z,101384.81
2022-12-07T04:22:54.472Z,101390.94
2022-12-07T04:25:21.179Z,101388.25
2022-12-07T04:27:47.910Z,101398.00
2022-12-07T04:30:14.740Z,101400.69
2022-12-07T04:32:41.561Z,101389.22
2022-12-07T04:35:09.255Z,101390.09
2022-12-07T04:37:36.149Z,101388.16
2022-12-07T04:40:03.682Z,101380.91
2022-12-07T04:42:30.517Z,101378.94
2022-12-07T04:44:57.271Z,101375.38
2022-12-07T04:47:23.985Z,101375.41
2022-12-07T04:49:50.687Z,101375.47
2022-12-07T04:52:17.448Z,101379.16
2022-12-07T04:54:44.207Z,101377.50
2022-12-07T04:57:10.960Z,101371.41
2022-12-07T04:59:41.036Z,101371.53
2022-12-07T05:02:10.677Z,101366.25
2022-12-07T05:04:37.415Z,101365.47
2022-12-07T05:07:04.113Z,101354.91
2022-12-07T05:09:30.851Z,101369.22
2022-12-07T05:11:57.579Z,101371.00
2022-12-07T05:14:24.489Z,101371.94
2022-12-07T05:16:52.357Z,101373.66
2022-12-07T05:19:19.912Z,101371.91
2022-12-07T05:21:47.547Z,101369.28
2022-12-07T05:24:17.927Z,101370.28
2022-12-07T05:26:45.781Z,101374.75
2022-12-07T05:29:15.818Z,101370.47
2022-12-07T05:31:43.674Z,101375.00
2022-12-07T05:34:12.369Z,101376.00
2022-12-07T05:36:39.067Z,101384.00
2022-12-07T05:39:08.249Z,101372.47
2022-12-07T05:41:53.562Z,101373.34
2022-12-07T05:44:20.363Z,101374.28
2022-12-07T05:46:47.093Z,101370.69
2022-12-07T05:49:13.849Z,101361.81
2022-12-07T05:51:40.595Z,101362.69
2022-12-07T05:54:07.368Z,101355.63
2022-12-07T05:56:34.230Z,101353.94
2022-12-07T05:59:19.699Z,101357.53
2022-12-07T06:01:46.675Z,101362.00
2022-12-07T06:04:13.616Z,101359.38
2022-12-07T06:06:40.400Z,101360.34
2022-12-07T06:09:07.593Z,101364.94
2022-12-07T06:11:52.729Z,101363.19
2022-12-07T06:14:19.568Z,101355.25
2022-12-07T06:16:46.936Z,101353.47
2022-12-07T06:19:13.732Z,101361.44
2022-12-07T06:21:40.930Z,101366.84
2022-12-07T06:24:08.605Z,101361.66
2022-12-07T06:26:35.393Z,101367.94
2022-12-07T06:29:02.155Z,101365.25
2022-12-07T06:31:29.116Z,101376.69
2022-12-07T06:34:01.978Z,101371.22
2022-12-07T06:36:29.046Z,101375.50
2022-12-07T06:38:56.113Z,101377.28
2022-12-07T06:41:23.950Z,101376.41
2022-12-07T06:43:55.805Z,101373.78
2022-12-07T06:46:23.924Z,101368.28
2022-12-07T06:48:51.054Z,101370.03
2022-12-07T06:51:17.882Z,101362.03
2022-12-07T06:53:44.570Z,101366.53
2022-12-07T06:56:11.683Z,101363.00
2022-12-07T06:58:38.686Z,101366.59
2022-12-07T07:01:15.558Z,101370.19
2022-12-07T07:03:43.572Z,101372.00
2022-12-07T07:06:10.864Z,101365.03
2022-12-07T07:08:39.232Z,101373.91
2022-12-07T07:11:07.441Z,101373.00
2022-12-07T07:13:34.569Z,101369.50
2022-12-07T07:16:01.825Z,101367.69
2022-12-07T07:18:29.402Z,101373.84
2022-12-07T07:20:56.799Z,101377.44
2022-12-07T07:23:23.736Z,101377.47
2022-12-07T07:25:50.485Z,101378.31
2022-12-07T07:28:18.185Z,101375.56
2022-12-07T07:30:45.559Z,101376.34
2022-12-07T07:33:13.132Z,101379.00
2022-12-07T07:35:40.401Z,101379.00
2022-12-07T07:38:08.328Z,101386.16
2022-12-07T07:40:36.089Z,101385.38
2022-12-07T07:43:02.830Z,101386.41
2022-12-07T07:45:29.555Z,101384.69
2022-12-07T07:47:56.318Z,101381.09
2022-12-07T07:50:23.679Z,101381.00
2022-12-07T07:52:50.984Z,101380.03
2022-12-07T07:55:18.738Z,101386.09
2022-12-07T07:57:51.209Z,101387.75
2022-12-07T08:00:21.627Z,101394.84
2022-12-07T08:02:48.451Z,101392.16
2022-12-07T08:05:17.228Z,101389.44
2022-12-07T08:07:45.780Z,101395.53
2022-12-07T08:10:14.608Z,101385.78
2022-12-07T08:13:02.789Z,101384.84
2022-12-07T08:15:32.109Z,101376.84
2022-12-07T08:17:59.821Z,101380.34
2022-12-07T08:20:27.276Z,101390.94
2022-12-07T08:22:54.177Z,101381.91
2022-12-07T08:25:23.027Z,101384.47
2022-12-07T08:27:51.891Z,101387.88
2022-12-07T08:30:19.855Z,101388.69
2022-12-07T08:32:48.704Z,101392.19
2022-12-07T08:35:16.852Z,101386.75
2022-12-07T08:37:43.709Z,101400.00
2022-12-07T08:40:17.096Z,101400.84
2022-12-07T08:42:45.652Z,101399.94
2022-12-07T08:45:15.218Z,101401.72
2022-12-07T08:47:53.638Z,101405.25
2022-12-07T08:50:21.467Z,101397.09
2022-12-07T08:52:57.154Z,101397.81
2022-12-07T08:55:24.789Z,101398.56
2022-12-07T08:57:52.559Z,101390.41
2022-12-07T09:00:19.760Z,101396.56
2022-12-07T09:02:48.138Z,101394.81
2022-12-07T09:05:18.257Z,101396.53
2022-12-07T09:07:49.142Z,101388.25
2022-12-07T09:10:16.025Z,101392.31
2022-12-07T09:12:42.755Z,101392.94
2022-12-07T09:15:10.080Z,101392.72
2022-12-07T09:17:38.152Z,101392.63
2022-12-07T09:20:07.081Z,101393.50
2022-12-07T09:22:34.468Z,101390.94
2022-12-07T09:25:02.649Z,101397.19
2022-12-07T09:27:30.135Z,101393.59
2022-12-07T09:29:57.038Z,101398.84
2022-12-07T09:32:24.185Z,101400.44
2022-12-07T09:34:51.226Z,101396.69
2022-12-07T09:37:18.094Z,101405.44
2022-12-07T09:39:50.032Z,101398.16
2022-12-07T09:42:44.741Z,101402.09
2022-12-07T09:45:28.180Z,101400.88
2022-12-07T09:47:55.867Z,101403.44
2022-12-07T09:50:27.924Z,101402.47
2022-12-07T09:53:11.324Z,101396.97
2022-12-07T09:55:42.015Z,101400.34
2022-12-07T09:58:22.892Z,101397.25
2022-12-07T10:00:56.615Z,101389.28
2022-12-07T10:03:23.850Z,101393.22
2022-12-07T10:05:53.736Z,101394.97
2022-12-07T10:08:20.749Z,101390.69
2022-12-07T10:10:56.614Z,101398.66
2022-12-07T10:13:48.835Z,101393.47
2022-12-07T10:16:42.750Z,101391.66
2022-12-07T10:19:18.594Z,101390.72
2022-12-07T10:22:16.227Z,101386.56
2022-12-07T10:24:46.425Z,101380.78
2022-12-07T10:27:27.682Z,101379.31
2022-12-07T10:29:54.738Z,101374.09
2022-12-07T10:32:21.408Z,101374.22
2022-12-07T10:34:52.115Z,101365.44
2022-12-07T10:37:21.480Z,101365.50
2022-12-07T10:39:49.440Z,101366.22
2022-12-07T10:42:24.422Z,101361.50
2022-12-07T10:45:15.642Z,101366.06
2022-12-07T10:48:17.697Z,101361.88
2022-12-07T10:50:59.459Z,101356.75
2022-12-07T10:54:11.958Z,101357.16
2022-12-07T10:57:07.087Z,101350.66
2022-12-07T11:00:00.592Z,101349.06
2022-12-07T11:02:45.326Z,101341.00
2022-12-07T11:05:46.288Z,101334.59
2022-12-07T11:08:37.602Z,101334.59
2022-12-07T11:11:15.498Z,101331.84
2022-12-07T11:14:29.730Z,101327.50
2022-12-07T11:17:07.469Z,101324.94
2022-12-07T11:20:02.023Z,101325.19
2022-12-07T11:22:49.264Z,101327.13
2022-12-07T11:25:47.874Z,101326.38
2022-12-07T11:28:33.166Z,101309.69
2022-12-07T11:31:38.007Z,101313.38
2022-12-07T11:34:19.817Z,101308.19
2022-12-07T11:36:53.474Z,101311.06
2022-12-07T11:39:20.618Z,101309.59
2022-12-07T11:41:56.010Z,101302.53
2022-12-07T11:44:53.130Z,101290.03
2022-12-07T11:47:35.980Z,101290.03
2022-12-07T11:50:26.134Z,101285.59
2022-12-07T11:53:01.687Z,101284.66
2022-12-07T11:55:58.923Z,101289.00
2022-12-07T11:58:40.591Z,101290.28
2022-12-07T12:01:40.188Z,101290.53
2022-12-07T12:04:28.842Z,101287.34
2022-12-07T12:06:56.490Z,101283.16
2022-12-07T12:15:53.043Z,101276.88
2022-12-07T12:18:49.069Z,101282.50
2022-12-07T12:21:23.439Z,101273.78
2022-12-07T12:24:09.905Z,101283.25
2022-12-07T12:26:39.530Z,101277.34
2022-12-07T12:29:24.394Z,101280.63
2022-12-07T12:32:23.103Z,101282.50
2022-12-07T12:35:01.390Z,101275.75
2022-12-07T12:37:33.832Z,101272.94
2022-12-07T12:40:15.799Z,101273.72
2022-12-07T12:42:48.100Z,101274.28
2022-12-07T12:45:33.706Z,101269.22
2022-12-07T12:48:36.359Z,101257.56
2022-12-07T12:51:43.649Z,101266.63
2022-12-07T12:54:19.337Z,101248.28
2022-12-07T12:56:59.854Z,101242.09
2022-12-07T12:59:31.863Z,101239.97
2022-12-07T13:02:48.723Z,101229.88
2022-12-07T13:05:15.407Z,101231.75
2022-12-07T13:07:48.083Z,101224.84
2022-12-07T13:10:35.796Z,101231.66
2022-12-07T13:13:15.052Z,101225.47
2022-12-07T13:16:08.114Z,101222.78
2022-12-07T13:18:34.995Z,101219.81
2022-12-07T13:21:07.725Z,101221.09
2022-12-07T13:23:45.953Z,101208.00
2022-12-07T13:26:23.832Z,101208.00
2022-12-07T13:29:10.758Z,101198.19
2022-12-07T13:31:51.472Z,101194.50
2022-12-07T13:34:35.719Z,101194.38
2022-12-07T13:37:16.029Z,101193.69
2022-12-07T13:39:53.191Z,101191.38
2022-12-07T13:42:33.019Z,101195.16
2022-12-07T13:45:21.854Z,101185.06
2022-12-07T13:47:58.406Z,101174.97
2022-12-07T13:50:32.512Z,101177.31
2022-12-07T13:53:01.889Z,101174.63
2022-12-07T13:55:30.581Z,101182.53
2022-12-07T13:57:57.853Z,101176.69
2022-12-07T14:00:29.447Z,101171.69
2022-12-07T14:03:04.295Z,101172.91
2022-12-07T14:05:37.486Z,101166.09
2022-12-07T14:08:22.518Z,101162.78
2022-12-07T14:10:52.382Z,101162.03
2022-12-07T14:14:05.773Z,101154.03
2022-12-07T14:16:39.814Z,101156.03
2022-12-07T14:19:48.273Z,101160.66
2022-12-07T14:22:38.454Z,101157.38
2022-12-07T14:25:05.394Z,101153.09
2022-12-07T14:27:35.152Z,101165.75
2022-12-07T14:30:04.652Z,101163.16
2022-12-07T14:32:33.537Z,101179.66
2022-12-07T14:35:14.198Z,101175.53
2022-12-07T14:37:43.654Z,101180.09
2022-12-07T14:40:23.188Z,101176.66
2022-12-07T14:43:01.106Z,101180.97
2022-12-07T14:45:27.928Z,101163.84
2022-12-07T14:53:55.367Z,101155.03
2022-12-07T14:56:25.826Z,101154.13
2022-12-07T14:58:52.780Z,101137.56
2022-12-07T15:01:19.599Z,101135.97
2022-12-07T15:03:46.572Z,101135.28
2022-12-07T15:06:19.149Z,101132.75
2022-12-07T15:08:48.955Z,101130.03
2022-12-07T15:11:18.390Z,101132.53
2022-12-07T15:14:03.537Z,101135.91
2022-12-07T15:16:40.722Z,101135.91
2022-12-07T15:19:29.452Z,101138.63
2022-12-07T15:21:58.216Z,101139.53
2022-12-07T15:24:25.307Z,101143.09
2022-12-07T15:26:53.189Z,101150.19
2022-12-07T15:29:23.311Z,101139.38
2022-12-07T15:31:57.792Z,101135.72
2022-12-07T15:34:30.916Z,101132.97
2022-12-07T15:37:00.154Z,101127.75
2022-12-07T15:39:27.028Z,101128.94
2022-12-07T15:41:53.731Z,101129.13
2022-12-07T15:44:39.056Z,101131.88
2022-12-07T15:47:06.850Z,101119.44
2022-12-07T15:49:33.924Z,101111.47
2022-12-07T15:52:00.704Z,101122.16
2022-12-07T15:54:30.266Z,101114.28
2022-12-07T15:56:57.349Z,101117.03
2022-12-07T15:59:24.982Z,101108.13
2022-12-07T16:01:52.018Z,101107.03
2022-12-07T16:04:19.613Z,101114.88
2022-12-07T16:06:46.440Z,101106.78
2022-12-07T16:09:13.456Z,101096.03
2022-12-07T16:11:40.222Z,101103.06
2022-12-07T16:14:06.981Z,101102.97
2022-12-07T16:16:34.003Z,101094.94
2022-12-07T16:19:00.903Z,101098.44
2022-12-07T16:21:27.656Z,101091.25
2022-12-07T16:23:54.480Z,101091.13
2022-12-07T16:26:22.979Z,101085.66
2022-12-07T16:28:51.500Z,101090.03
2022-12-07T16:31:22.281Z,101091.66
2022-12-07T16:33:50.494Z,101090.69
2022-12-07T16:36:40.042Z,101085.22
2022-12-07T16:39:06.858Z,101090.47
2022-12-07T16:41:33.930Z,101093.97
2022-12-07T16:44:07.515Z,101082.34
2022-12-07T16:46:36.935Z,101081.41
2022-12-07T16:49:05.272Z,101080.50
2022-12-07T16:51:32.807Z,101079.44
2022-12-07T16:53:59.798Z,101078.44
2022-12-07T16:56:27.684Z,101076.59
2022-12-07T16:58:55.687Z,101073.88
2022-12-07T17:01:23.944Z,101078.25
2022-12-07T17:03:51.483Z,101067.41
2022-12-07T17:06:24.582Z,101070.03
2022-12-07T17:08:52.752Z,101078.00
2022-12-07T17:11:29.745Z,101075.28
2022-12-07T17:14:20.496Z,101068.94
2022-12-07T17:16:47.835Z,101067.97
2022-12-07T17:19:17.715Z,101068.88
2022-12-07T17:21:45.234Z,101072.34
2022-12-07T17:24:16.275Z,101066.16
2022-12-07T17:26:45.639Z,101064.34
2022-12-07T17:29:15.553Z,101067.81
2022-12-07T17:31:46.365Z,101051.78
2022-12-07T17:34:17.759Z,101052.75
2022-12-07T17:36:46.098Z,101050.94
2022-12-07T17:39:18.340Z,101041.19
2022-12-07T17:42:04.366Z,101047.50
2022-12-07T17:44:31.897Z,101042.22
2022-12-07T17:46:59.662Z,101043.16
2022-12-07T17:49:27.760Z,101030.78
2022-12-07T17:52:14.240Z,101037.06
2022-12-07T17:54:41.142Z,101031.81
2022-12-07T17:57:08.522Z,101029.25
2022-12-07T17:59:35.322Z,101025.78
2022-12-07T18:02:02.088Z,101029.34
2022-12-07T18:04:28.935Z,101022.25
2022-12-07T18:06:55.791Z,101025.78
2022-12-07T18:09:23.456Z,101020.56
2022-12-07T18:11:50.392Z,101017.91
2022-12-07T18:14:17.338Z,101024.16
2022-12-07T18:16:44.517Z,101018.81
2022-12-07T18:19:14.497Z,101010.81
2022-12-07T18:21:42.124Z,101009.06
2022-12-07T18:24:13.219Z,101006.38
2022-12-07T18:26:40.608Z,101001.03
2022-12-07T18:29:08.855Z,100999.31
2022-12-07T18:31:37.092Z,101003.78
2022-12-07T18:34:11.884Z,101006.38
2022-12-07T18:36:42.724Z,100990.44
2022-12-07T18:39:10.432Z,100992.16
2022-12-07T18:41:39.320Z,100992.22
2022-12-07T18:44:07.852Z,100991.34
2022-12-07T18:46:36.232Z,100986.88
2022-12-07T18:49:04.493Z,100985.97
2022-12-07T18:51:32.598Z,100981.41
2022-12-07T18:54:01.365Z,100974.31
2022-12-07T18:56:29.469Z,100979.56
2022-12-07T18:59:20.473Z,100976.88
2022-12-07T19:01:51.742Z,100977.88
2022-12-07T19:04:19.094Z,100991.25
2022-12-07T19:06:48.914Z,100992.09
2022-12-07T19:09:17.368Z,100985.84
2022-12-07T19:11:50.415Z,100988.53
2022-12-07T19:14:29.049Z,100986.75
2022-12-07T19:17:03.243Z,100983.19
2022-12-07T19:19:34.948Z,100992.09
2022-12-07T19:22:03.116Z,100984.91
2022-12-07T19:24:30.475Z,100977.75
2022-12-07T19:26:58.269Z,100984.09
2022-12-07T19:29:27.950Z,100979.56
2022-12-07T19:31:54.788Z,100976.84
2022-12-07T19:34:21.672Z,100970.56
2022-12-07T19:36:48.694Z,100970.50
2022-12-07T19:39:16.194Z,100975.81
2022-12-07T19:41:44.810Z,100975.81
2022-12-07T19:44:17.997Z,100962.56
2022-12-07T19:46:48.771Z,100965.28
2022-12-07T19:49:16.472Z,100970.63
2022-12-07T19:51:52.861Z,100968.75
2022-12-07T19:54:23.455Z,100961.66
2022-12-07T19:56:51.881Z,100968.75
2022-12-07T19:59:23.273Z,100958.06
2022-12-07T20:01:50.478Z,100963.41
2022-12-07T20:04:22.273Z,100972.25
2022-12-07T20:06:53.481Z,100959.81
2022-12-07T20:09:21.559Z,100958.06
2022-12-07T20:12:07.377Z,100958.06
2022-12-07T20:14:35.318Z,100959.00
2022-12-07T20:17:03.446Z,100952.84
2022-12-07T20:19:30.301Z,100952.84
2022-12-07T20:21:57.228Z,100952.91
2022-12-07T20:24:26.432Z,100951.94
2022-12-07T20:26:54.884Z,100948.44
2022-12-07T20:29:25.394Z,100949.38
2022-12-07T20:31:54.934Z,100946.81
2022-12-07T20:34:22.465Z,100946.84
2022-12-07T20:36:49.341Z,100946.94
2022-12-07T20:39:16.892Z,100938.94
2022-12-07T20:42:02.061Z,100931.84
2022-12-07T20:44:28.742Z,100930.13
2022-12-07T20:46:55.537Z,100926.59
2022-12-07T20:49:22.470Z,100909.78
2022-12-07T20:51:49.389Z,100910.72
2022-12-07T20:54:16.169Z,100916.19
2022-12-07T20:56:43.435Z,100922.44
2022-12-07T20:59:15.321Z,100910.94
2022-12-07T21:01:43.894Z,100914.56
2022-12-07T21:04:12.689Z,100914.56
2022-12-07T21:06:40.133Z,100903.03
2022-12-07T21:09:07.493Z,100901.31
2022-12-07T21:11:34.319Z,100889.84
2022-12-07T21:14:01.612Z,100889.84
2022-12-07T21:16:31.310Z,100888.91
2022-12-07T21:19:03.579Z,100884.50
2022-12-07T21:21:32.775Z,100884.50
2022-12-07T21:24:02.762Z,100891.69
2022-12-07T21:26:36.176Z,100895.34
2022-12-07T21:29:07.328Z,100897.16
2022-12-07T21:31:35.107Z,100891.81
2022-12-07T21:34:03.967Z,100904.25
2022-12-07T21:36:31.478Z,100893.66
2022-12-07T21:38:58.950Z,100894.53
2022-12-07T21:41:32.400Z,100892.00
2022-12-07T21:44:01.608Z,100885.84
2022-12-07T21:46:34.314Z,100885.00
2022-12-07T21:49:08.688Z,100876.19
2022-12-07T21:51:35.529Z,100877.19
2022-12-07T21:54:04.558Z,100882.53
2022-12-07T21:56:35.960Z,100884.34
2022-12-07T21:59:10.727Z,100878.13
2022-12-07T22:01:40.670Z,100879.00
2022-12-07T22:04:14.241Z,100879.88
2022-12-07T22:06:41.008Z,100879.00
2022-12-07T22:09:07.830Z,100872.78
2022-12-07T22:11:35.871Z,100875.44
2022-12-07T22:14:23.124Z,100873.72
2022-12-07T22:16:51.449Z,100865.81
2022-12-07T22:19:18.949Z,100864.09
2022-12-07T22:21:45.993Z,100869.44
2022-12-07T22:24:13.927Z,100866.63
2022-12-07T22:26:42.711Z,100862.25
2022-12-07T22:29:10.560Z,100861.28
2022-12-07T22:31:38.351Z,100859.63
2022-12-07T22:34:05.239Z,100853.34
2022-12-07T22:36:32.265Z,100852.53
2022-12-07T22:39:01.544Z,100842.75
2022-12-07T22:41:31.981Z,100843.72
2022-12-07T22:44:00.785Z,100842.75
2022-12-07T22:46:28.442Z,100831.13
2022-12-07T22:48:55.283Z,100827.47
2022-12-07T22:51:27.962Z,100818.59
2022-12-07T22:53:56.964Z,100820.34
2022-12-07T22:56:23.837Z,100819.38
2022-12-07T22:58:50.671Z,100817.66
2022-12-07T23:01:20.276Z,100806.13
2022-12-07T23:03:47.327Z,100807.00
2022-12-07T23:06:34.467Z,100799.03
2022-12-07T23:09:08.064Z,100792.84
2022-12-07T23:11:58.809Z,100792.84
2022-12-07T23:14:30.326Z,100788.41
2022-12-07T23:16:57.751Z,100790.16
2022-12-07T23:19:24.944Z,100789.38
2022-12-07T23:21:51.837Z,100784.03
2022-12-07T23:24:18.707Z,100781.38
2022-12-07T23:26:46.872Z,100769.84
2022-12-07T23:29:17.767Z,100765.50
2022-12-07T23:31:47.722Z,100768.25
2022-12-07T23:34:14.627Z,100763.97
2022-12-07T23:36:41.338Z,100763.16
2022-12-07T23:39:09.419Z,100763.28
2022-12-07T23:41:36.215Z,100770.47
2022-12-07T23:44:03.263Z,100772.34
2022-12-07T23:46:33.336Z,100772.44
2022-12-07T23:49:03.444Z,100764.31
2022-12-07T23:51:30.956Z,100770.59
2022-12-07T23:54:00.928Z,100751.09
2022-12-07T23:56:31.179Z,100759.16
2022-12-07T23:58:59.989Z,100761.78
